createdAt,value
2019-03-27T00:00:49.396Z,0.00
2019-03-27T00:01:49.451Z,0.00
2019-03-27T00:02:49.817Z,0.00
2019-03-27T00:03:49.202Z,0.00
2019-03-27T00:04:49.176Z,0.00
2019-03-27T00:05:50.080Z,0.00
2019-03-27T00:06:49.810Z,0.00
2019-03-27T00:07:49.137Z,0.00
2019-03-27T00:08:49.142Z,0.00
2019-03-27T00:09:49.114Z,0.00
2019-03-27T00:10:49.106Z,0.00
2019-03-27T00:11:49.129Z,0.00
2019-03-27T00:12:49.096Z,0.00
2019-03-27T00:13:49.072Z,0.00
2019-03-27T00:14:49.114Z,0.00
2019-03-27T00:15:49.046Z,0.00
2019-03-27T00:16:49.059Z,0.00
2019-03-27T00:17:49.037Z,0.00
2019-03-27T00:18:49.038Z,0.00
2019-03-27T00:19:48.999Z,0.00
2019-03-27T00:20:49.267Z,0.00
2019-03-27T00:21:49.007Z,0.00
2019-03-27T00:22:48.968Z,0.00
2019-03-27T00:23:48.977Z,0.00
2019-03-27T00:24:49.006Z,0.00
2019-03-27T00:25:48.923Z,0.00
2019-03-27T00:26:48.909Z,0.00
2019-03-27T00:27:48.923Z,0.00
2019-03-27T00:28:48.934Z,0.00
2019-03-27T00:29:48.907Z,0.00
2019-03-27T00:30:48.870Z,0.00
2019-03-27T00:31:48.879Z,0.00
2019-03-27T00:32:48.861Z,0.00
2019-03-27T00:33:48.858Z,0.00
2019-03-27T00:34:48.837Z,0.00
2019-03-27T00:35:48.812Z,0.00
2019-03-27T00:36:48.815Z,0.00
2019-03-27T00:37:48.927Z,0.00
2019-03-27T00:38:48.786Z,0.00
2019-03-27T00:39:48.773Z,0.00
2019-03-27T00:40:48.777Z,0.00
2019-03-27T00:41:48.754Z,0.00
2019-03-27T00:42:48.752Z,0.00
2019-03-27T00:43:48.911Z,0.00
2019-03-27T00:44:48.734Z,0.00
2019-03-27T00:45:48.715Z,0.00
2019-03-27T00:46:48.732Z,0.00
2019-03-27T00:47:48.682Z,0.00
2019-03-27T00:48:48.719Z,0.00
2019-03-27T00:49:48.697Z,0.00
2019-03-27T00:50:48.754Z,0.00
2019-03-27T00:51:48.720Z,0.00
2019-03-27T00:52:48.693Z,0.00
2019-03-27T00:53:48.631Z,0.00
2019-03-27T00:54:48.685Z,0.00
2019-03-27T00:55:48.625Z,0.00
2019-03-27T00:56:56.176Z,0.00
2019-03-27T00:57:48.596Z,0.00
2019-03-27T00:58:48.749Z,0.00
2019-03-27T00:59:48.563Z,0.00
2019-03-27T01:00:48.614Z,0.00
2019-03-27T01:01:48.863Z,0.00
2019-03-27T01:02:48.527Z,0.00
2019-03-27T01:03:48.542Z,0.00
2019-03-27T01:04:48.500Z,0.00
2019-03-27T01:05:48.468Z,0.00
2019-03-27T01:06:50.970Z,0.00
2019-03-27T01:07:48.456Z,0.00
2019-03-27T01:08:48.468Z,0.00
2019-03-27T01:09:48.431Z,0.00
2019-03-27T01:10:48.422Z,0.00
2019-03-27T01:11:49.330Z,0.00
2019-03-27T01:12:48.489Z,0.00
2019-03-27T01:13:48.874Z,0.00
2019-03-27T01:14:52.287Z,0.00
2019-03-27T01:16:05.855Z,0.00
2019-03-27T01:16:50.718Z,0.00
2019-03-27T01:17:48.463Z,0.00
2019-03-27T01:18:48.395Z,0.00
2019-03-27T01:19:48.343Z,0.00
2019-03-27T01:20:48.369Z,0.00
2019-03-27T01:21:48.343Z,0.00
2019-03-27T01:22:49.283Z,0.00
2019-03-27T01:23:48.394Z,0.00
2019-03-27T01:24:48.291Z,0.00
2019-03-27T01:25:48.413Z,0.00
2019-03-27T01:26:48.239Z,0.00
2019-03-27T01:27:48.292Z,0.00
2019-03-27T01:28:48.348Z,0.00
2019-03-27T01:29:48.290Z,0.00
2019-03-27T01:30:49.474Z,0.00
2019-03-27T01:31:48.177Z,0.00
2019-03-27T01:32:48.177Z,0.00
2019-03-27T01:33:48.157Z,0.00
2019-03-27T01:34:48.175Z,0.00
2019-03-27T01:35:48.183Z,0.00
2019-03-27T01:36:48.169Z,0.00
2019-03-27T01:37:48.168Z,0.00
2019-03-27T01:38:48.148Z,0.00
2019-03-27T01:39:48.184Z,0.00
2019-03-27T01:40:48.164Z,0.00
2019-03-27T01:41:48.081Z,0.00
2019-03-27T01:42:48.091Z,0.00
2019-03-27T01:43:48.087Z,0.00
2019-03-27T01:44:58.770Z,0.00
2019-03-27T01:45:53.171Z,0.00
2019-03-27T01:46:49.027Z,0.00
2019-03-27T01:47:48.044Z,0.00
2019-03-27T01:48:48.037Z,0.00
2019-03-27T01:49:48.052Z,0.00
2019-03-27T01:50:47.955Z,0.00
2019-03-27T01:51:47.976Z,0.00
2019-03-27T01:52:47.948Z,0.00
2019-03-27T01:53:47.949Z,0.00
2019-03-27T01:54:47.964Z,0.00
2019-03-27T01:55:47.912Z,0.00
2019-03-27T01:56:47.894Z,0.00
2019-03-27T01:57:47.880Z,0.00
2019-03-27T01:58:47.884Z,0.00
2019-03-27T01:59:47.881Z,0.00
2019-03-27T02:00:47.839Z,0.00
2019-03-27T02:01:47.827Z,0.00
2019-03-27T02:02:47.828Z,0.00
2019-03-27T02:03:47.809Z,0.00
2019-03-27T02:04:47.829Z,0.00
2019-03-27T02:05:47.795Z,0.00
2019-03-27T02:06:47.984Z,0.00
2019-03-27T02:07:47.783Z,0.00
2019-03-27T02:08:47.802Z,0.00
2019-03-27T02:09:47.934Z,0.00
2019-03-27T02:10:47.807Z,0.00
2019-03-27T02:11:47.788Z,0.00
2019-03-27T02:12:47.763Z,0.00
2019-03-27T02:13:47.741Z,0.00
2019-03-27T02:14:47.721Z,0.00
2019-03-27T02:15:47.719Z,0.00
2019-03-27T02:16:47.687Z,0.00
2019-03-27T02:17:47.809Z,0.00
2019-03-27T02:18:47.726Z,0.00
2019-03-27T02:19:47.751Z,0.00
2019-03-27T02:20:47.855Z,0.00
2019-03-27T02:21:47.670Z,0.00
2019-03-27T02:22:47.639Z,0.00
2019-03-27T02:23:47.677Z,0.00
2019-03-27T02:24:47.605Z,0.00
2019-03-27T02:25:47.569Z,0.00
2019-03-27T02:26:47.596Z,0.00
2019-03-27T02:27:47.536Z,0.00
2019-03-27T02:28:47.726Z,0.00
2019-03-27T02:29:47.609Z,0.00
2019-03-27T02:30:47.604Z,0.00
2019-03-27T02:31:47.619Z,0.00
2019-03-27T02:32:47.565Z,0.00
2019-03-27T02:33:47.475Z,0.00
2019-03-27T02:34:47.859Z,0.00
2019-03-27T02:35:47.547Z,0.00
2019-03-27T02:36:47.474Z,0.00
2019-03-27T02:37:47.489Z,0.00
2019-03-27T02:38:47.412Z,0.00
2019-03-27T02:39:47.445Z,0.00
2019-03-27T02:40:47.392Z,0.00
2019-03-27T02:41:47.395Z,0.00
2019-03-27T02:42:47.361Z,0.00
2019-03-27T02:43:47.380Z,0.00
2019-03-27T02:44:47.419Z,0.00
2019-03-27T02:45:47.352Z,0.00
2019-03-27T02:46:47.440Z,0.00
2019-03-27T02:47:47.309Z,0.00
2019-03-27T02:48:47.303Z,0.00
2019-03-27T02:49:47.334Z,0.00
2019-03-27T02:50:47.319Z,0.00
2019-03-27T02:51:47.258Z,0.00
2019-03-27T02:52:47.299Z,0.00
2019-03-27T02:53:47.245Z,0.00
2019-03-27T02:54:47.244Z,0.00
2019-03-27T02:55:47.259Z,0.00
2019-03-27T02:56:47.228Z,0.00
2019-03-27T02:57:47.248Z,0.00
2019-03-27T02:58:47.174Z,0.00
2019-03-27T02:59:47.173Z,0.00
2019-03-27T03:00:47.186Z,0.00
2019-03-27T03:01:48.271Z,0.00
2019-03-27T03:02:47.136Z,0.00
2019-03-27T03:03:47.113Z,0.00
2019-03-27T03:04:47.115Z,0.00
2019-03-27T03:05:47.166Z,0.00
2019-03-27T03:06:47.079Z,0.00
2019-03-27T03:07:47.099Z,0.00
2019-03-27T03:08:47.091Z,0.00
2019-03-27T03:09:47.063Z,0.00
2019-03-27T03:10:47.053Z,0.00
2019-03-27T03:11:47.053Z,0.00
2019-03-27T03:12:47.012Z,0.00
2019-03-27T03:13:47.004Z,0.00
2019-03-27T03:14:47.017Z,0.00
2019-03-27T03:15:47.020Z,0.00
2019-03-27T03:16:46.977Z,0.00
2019-03-27T03:17:46.969Z,0.00
2019-03-27T03:18:46.944Z,0.00
2019-03-27T03:19:46.933Z,0.00
2019-03-27T03:20:46.938Z,0.00
2019-03-27T03:21:46.908Z,0.00
2019-03-27T03:22:46.928Z,0.00
2019-03-27T03:23:46.930Z,0.00
2019-03-27T03:24:46.888Z,0.00
2019-03-27T03:25:46.889Z,0.00
2019-03-27T03:26:50.614Z,0.00
2019-03-27T03:27:46.851Z,0.00
2019-03-27T03:28:46.869Z,0.00
2019-03-27T03:29:46.811Z,0.00
2019-03-27T03:30:46.839Z,0.00
2019-03-27T03:31:46.802Z,0.00
2019-03-27T03:32:46.805Z,0.00
2019-03-27T03:33:46.774Z,0.00
2019-03-27T03:34:46.763Z,0.00
2019-03-27T03:35:46.763Z,0.00
2019-03-27T03:36:46.737Z,0.00
2019-03-27T03:37:46.721Z,0.00
2019-03-27T03:38:46.727Z,0.00
2019-03-27T03:39:46.729Z,0.00
2019-03-27T03:40:46.896Z,0.00
2019-03-27T03:41:46.675Z,0.00
2019-03-27T03:42:46.662Z,0.00
2019-03-27T03:43:46.657Z,0.00
2019-03-27T03:44:46.659Z,0.00
2019-03-27T03:45:46.631Z,0.00
2019-03-27T03:46:58.876Z,0.00
2019-03-27T03:47:47.613Z,0.00
2019-03-27T03:48:46.597Z,0.00
2019-03-27T03:49:46.595Z,0.00
2019-03-27T03:50:46.571Z,0.00
2019-03-27T03:51:46.611Z,0.00
2019-03-27T03:52:46.566Z,0.00
2019-03-27T03:53:46.585Z,0.00
2019-03-27T03:54:46.808Z,0.00
2019-03-27T03:55:46.637Z,0.00
2019-03-27T03:56:46.613Z,0.00
2019-03-27T03:57:46.546Z,0.00
2019-03-27T03:58:46.539Z,0.00
2019-03-27T03:59:46.533Z,0.00
2019-03-27T04:00:46.485Z,0.00
2019-03-27T04:01:46.481Z,0.00
2019-03-27T04:02:46.451Z,0.00
2019-03-27T04:03:46.481Z,0.00
2019-03-27T04:04:46.461Z,0.00
2019-03-27T04:05:46.413Z,0.00
2019-03-27T04:06:46.414Z,0.00
2019-03-27T04:07:46.383Z,0.00
2019-03-27T04:08:46.418Z,0.00
2019-03-27T04:09:46.363Z,0.00
2019-03-27T04:10:46.413Z,0.00
2019-03-27T04:11:46.395Z,0.00
2019-03-27T04:12:46.370Z,0.00
2019-03-27T04:13:46.361Z,0.00
2019-03-27T04:14:46.355Z,0.00
2019-03-27T04:15:46.346Z,0.00
2019-03-27T04:16:46.373Z,0.00
2019-03-27T04:17:46.427Z,0.00
2019-03-27T04:18:46.309Z,0.00
2019-03-27T04:19:46.276Z,0.00
2019-03-27T04:20:46.242Z,0.00
2019-03-27T04:21:46.252Z,0.00
2019-03-27T04:22:46.250Z,0.00
2019-03-27T04:23:46.233Z,0.00
2019-03-27T04:24:46.242Z,0.00
2019-03-27T04:26:08.012Z,0.00
2019-03-27T04:26:47.193Z,0.00
2019-03-27T04:27:46.169Z,4.00
2019-03-27T04:28:46.152Z,0.00
2019-03-27T04:29:46.132Z,0.00
2019-03-27T04:30:46.169Z,4.00
2019-03-27T04:31:46.185Z,4.00
2019-03-27T04:32:46.111Z,4.00
2019-03-27T04:33:46.118Z,4.00
2019-03-27T04:34:47.399Z,4.00
2019-03-27T04:35:46.098Z,4.00
2019-03-27T04:36:46.049Z,4.00
2019-03-27T04:37:46.060Z,4.00
2019-03-27T04:38:46.044Z,4.00
2019-03-27T04:39:46.020Z,8.00
2019-03-27T04:40:46.035Z,8.00
2019-03-27T04:41:46.032Z,12.00
2019-03-27T04:42:46.034Z,12.00
2019-03-27T04:43:45.997Z,12.00
2019-03-27T04:44:46.000Z,20.00
2019-03-27T04:45:45.974Z,20.00
2019-03-27T04:46:45.964Z,16.00
2019-03-27T04:47:45.920Z,20.00
2019-03-27T04:48:45.972Z,28.00
2019-03-27T04:49:45.910Z,28.00
2019-03-27T04:50:45.909Z,32.00
2019-03-27T04:51:45.932Z,28.00
2019-03-27T04:52:45.933Z,32.00
2019-03-27T04:53:45.936Z,36.00
2019-03-27T04:54:45.845Z,40.00
2019-03-27T04:55:45.855Z,40.00
2019-03-27T04:56:45.837Z,40.00
2019-03-27T04:57:45.867Z,44.00
2019-03-27T04:58:45.870Z,40.00
2019-03-27T04:59:45.787Z,52.00
2019-03-27T05:00:45.790Z,56.00
2019-03-27T05:01:45.776Z,64.00
2019-03-27T05:02:45.778Z,72.00
2019-03-27T05:03:45.784Z,80.00
2019-03-27T05:04:45.736Z,84.00
2019-03-27T05:05:45.735Z,88.00
2019-03-27T05:06:45.717Z,96.00
2019-03-27T05:07:45.755Z,108.00
2019-03-27T05:08:45.793Z,100.00
2019-03-27T05:09:45.667Z,100.00
2019-03-27T05:10:45.725Z,124.00
2019-03-27T05:11:45.651Z,160.00
2019-03-27T05:12:45.642Z,192.00
2019-03-27T05:13:45.682Z,216.00
2019-03-27T05:14:45.683Z,236.00
2019-03-27T05:15:45.598Z,216.00
2019-03-27T05:16:45.594Z,208.00
2019-03-27T05:17:46.546Z,204.00
2019-03-27T05:18:45.578Z,268.00
2019-03-27T05:19:45.683Z,300.00
2019-03-27T05:20:45.549Z,296.00
2019-03-27T05:21:45.705Z,304.00
2019-03-27T05:22:45.525Z,320.00
2019-03-27T05:23:46.257Z,288.00
2019-03-27T05:24:45.516Z,308.00
2019-03-27T05:25:45.551Z,316.00
2019-03-27T05:26:45.522Z,308.00
2019-03-27T05:27:54.155Z,272.00
2019-03-27T05:28:45.618Z,328.00
2019-03-27T05:29:55.380Z,292.00
2019-03-27T05:30:53.137Z,268.00
2019-03-27T05:31:52.656Z,248.00
2019-03-27T05:32:45.488Z,268.00
2019-03-27T05:33:45.484Z,280.00
2019-03-27T05:34:45.404Z,288.00
2019-03-27T05:35:45.412Z,336.00
2019-03-27T05:36:45.425Z,368.00
2019-03-27T05:37:45.351Z,348.00
2019-03-27T05:38:45.348Z,364.00
2019-03-27T05:39:45.343Z,436.00
2019-03-27T05:40:45.344Z,416.00
2019-03-27T05:41:45.335Z,456.00
2019-03-27T05:42:45.291Z,428.00
2019-03-27T05:43:45.857Z,432.00
2019-03-27T05:44:45.280Z,356.00
2019-03-27T05:45:45.297Z,376.00
2019-03-27T05:46:45.310Z,420.00
2019-03-27T05:47:58.612Z,400.00
2019-03-27T05:48:46.276Z,352.00
2019-03-27T05:49:45.216Z,340.00
2019-03-27T05:50:45.222Z,400.00
2019-03-27T05:51:45.217Z,416.00
2019-03-27T05:52:45.203Z,412.00
2019-03-27T05:53:45.166Z,472.00
2019-03-27T05:54:45.155Z,512.00
2019-03-27T05:55:45.160Z,496.00
2019-03-27T05:56:45.132Z,456.00
2019-03-27T05:57:45.142Z,548.00
2019-03-27T05:58:45.168Z,460.00
2019-03-27T05:59:45.099Z,388.00
2019-03-27T06:00:45.098Z,420.00
2019-03-27T06:01:45.077Z,580.00
2019-03-27T06:02:45.086Z,556.00
2019-03-27T06:03:45.077Z,592.00
2019-03-27T06:04:45.091Z,568.00
2019-03-27T06:05:45.041Z,608.00
2019-03-27T06:06:45.038Z,788.00
2019-03-27T06:07:45.016Z,944.00
2019-03-27T06:08:45.031Z,1004.00
2019-03-27T06:09:45.027Z,936.00
2019-03-27T06:10:45.077Z,824.00
2019-03-27T06:11:44.970Z,872.00
2019-03-27T06:12:44.948Z,968.00
2019-03-27T06:13:44.939Z,1048.00
2019-03-27T06:14:44.940Z,876.00
2019-03-27T06:15:45.381Z,1036.00
2019-03-27T06:16:44.904Z,996.00
2019-03-27T06:17:44.958Z,872.00
2019-03-27T06:18:44.901Z,1048.00
2019-03-27T06:19:44.908Z,980.00
2019-03-27T06:20:44.879Z,1268.00
2019-03-27T06:21:44.864Z,1532.00
2019-03-27T06:22:44.837Z,1340.00
2019-03-27T06:23:44.821Z,1172.00
2019-03-27T06:24:44.832Z,1260.00
2019-03-27T06:25:44.926Z,1416.00
2019-03-27T06:26:45.381Z,1788.00
2019-03-27T06:27:44.778Z,1852.00
2019-03-27T06:28:44.769Z,1900.00
2019-03-27T06:29:44.761Z,1676.00
2019-03-27T06:30:44.767Z,2068.00
2019-03-27T06:31:44.749Z,1888.00
2019-03-27T06:32:44.774Z,2672.00
2019-03-27T06:33:44.711Z,2536.00
2019-03-27T06:34:44.699Z,2796.00
2019-03-27T06:35:44.791Z,2700.00
2019-03-27T06:36:44.694Z,2556.00
2019-03-27T06:37:44.666Z,2636.00
2019-03-27T06:38:44.653Z,2676.00
2019-03-27T06:39:44.640Z,2708.00
2019-03-27T06:40:44.637Z,2820.00
2019-03-27T06:41:45.052Z,2556.00
2019-03-27T06:42:44.880Z,2600.00
2019-03-27T06:43:44.667Z,2392.00
2019-03-27T06:44:44.639Z,2104.00
2019-03-27T06:45:53.347Z,2152.00
2019-03-27T06:46:45.588Z,2148.00
2019-03-27T06:47:44.564Z,2028.00
2019-03-27T06:48:44.577Z,2180.00
2019-03-27T06:49:44.583Z,2180.00
2019-03-27T06:50:44.518Z,2832.00
2019-03-27T06:51:44.526Z,3384.00
2019-03-27T06:52:46.016Z,4392.00
2019-03-27T06:53:44.823Z,4292.00
2019-03-27T06:54:44.639Z,3780.00
2019-03-27T06:55:44.528Z,3628.00
2019-03-27T06:56:44.740Z,3528.00
2019-03-27T06:57:44.452Z,3144.00
2019-03-27T06:58:54.555Z,3492.00
2019-03-27T06:59:46.810Z,3464.00
2019-03-27T07:00:44.447Z,3500.00
2019-03-27T07:01:44.558Z,3144.00
2019-03-27T07:02:44.448Z,2872.00
2019-03-27T07:03:44.681Z,3200.00
2019-03-27T07:04:44.374Z,3472.00
2019-03-27T07:05:44.397Z,3192.00
2019-03-27T07:06:44.384Z,3520.00
2019-03-27T07:07:44.332Z,3592.00
2019-03-27T07:08:44.342Z,3528.00
2019-03-27T07:09:44.950Z,3608.00
2019-03-27T07:10:44.424Z,3680.00
2019-03-27T07:11:44.611Z,3740.00
2019-03-27T07:12:44.320Z,3892.00
2019-03-27T07:13:44.258Z,3916.00
2019-03-27T07:14:44.251Z,3988.00
2019-03-27T07:15:44.370Z,3904.00
2019-03-27T07:16:44.389Z,4220.00
2019-03-27T07:17:44.410Z,4300.00
2019-03-27T07:18:44.203Z,4244.00
2019-03-27T07:19:44.260Z,4132.00
2019-03-27T07:20:44.183Z,3920.00
2019-03-27T07:21:44.188Z,3764.00
2019-03-27T07:22:44.193Z,3872.00
2019-03-27T07:23:44.188Z,3944.00
2019-03-27T07:24:44.143Z,3852.00
2019-03-27T07:25:44.131Z,3608.00
2019-03-27T07:26:44.217Z,3768.00
2019-03-27T07:27:44.122Z,3792.00
2019-03-27T07:28:44.155Z,3896.00
2019-03-27T07:29:44.126Z,3976.00
2019-03-27T07:30:44.243Z,4212.00
2019-03-27T07:31:44.071Z,4328.00
2019-03-27T07:32:44.055Z,4424.00
2019-03-27T07:33:44.060Z,4436.00
2019-03-27T07:34:44.029Z,4436.00
2019-03-27T07:35:44.002Z,4336.00
2019-03-27T07:36:43.994Z,4348.00
2019-03-27T07:37:44.047Z,4464.00
2019-03-27T07:38:43.998Z,4624.00
2019-03-27T07:39:43.986Z,4704.00
2019-03-27T07:40:43.991Z,4832.00
2019-03-27T07:41:43.934Z,4936.00
2019-03-27T07:42:43.941Z,4872.00
2019-03-27T07:43:43.922Z,4824.00
2019-03-27T07:44:43.920Z,4664.00
2019-03-27T07:45:43.923Z,4404.00
2019-03-27T07:46:43.894Z,4108.00
2019-03-27T07:47:43.884Z,3936.00
2019-03-27T07:48:53.808Z,3852.00
2019-03-27T07:49:44.859Z,4116.00
2019-03-27T07:50:43.834Z,4156.00
2019-03-27T07:51:43.873Z,4224.00
2019-03-27T07:52:43.825Z,4140.00
2019-03-27T07:53:43.799Z,4076.00
2019-03-27T07:54:43.803Z,3964.00
2019-03-27T07:55:44.111Z,4212.00
2019-03-27T07:56:44.207Z,4128.00
2019-03-27T07:57:43.844Z,3892.00
2019-03-27T07:58:43.823Z,3664.00
2019-03-27T07:59:43.792Z,4164.00
2019-03-27T08:00:43.743Z,4288.00
2019-03-27T08:01:43.739Z,4360.00
2019-03-27T08:02:43.867Z,3944.00
2019-03-27T08:03:43.691Z,2932.00
2019-03-27T08:04:43.672Z,3476.00
2019-03-27T08:05:43.663Z,4272.00
2019-03-27T08:06:43.660Z,4172.00
2019-03-27T08:07:43.663Z,3680.00
2019-03-27T08:08:43.632Z,3728.00
2019-03-27T08:09:43.619Z,3968.00
2019-03-27T08:10:43.713Z,4436.00
2019-03-27T08:11:43.602Z,4016.00
2019-03-27T08:12:43.657Z,3104.00
2019-03-27T08:13:43.583Z,2816.00
2019-03-27T08:14:43.562Z,3008.00
2019-03-27T08:15:43.556Z,3080.00
2019-03-27T08:16:43.551Z,2832.00
2019-03-27T08:17:43.546Z,3172.00
2019-03-27T08:18:43.676Z,3472.00
2019-03-27T08:19:43.504Z,3292.00
2019-03-27T08:20:43.498Z,2888.00
2019-03-27T08:21:43.480Z,2364.00
2019-03-27T08:22:43.546Z,2900.00
2019-03-27T08:23:43.456Z,3456.00
2019-03-27T08:24:43.556Z,4640.00
2019-03-27T08:25:43.590Z,3512.00
2019-03-27T08:26:43.425Z,2396.00
2019-03-27T08:27:43.465Z,2468.00
2019-03-27T08:28:43.419Z,3884.00
2019-03-27T08:29:44.195Z,4920.00
2019-03-27T08:30:43.526Z,3736.00
2019-03-27T08:31:43.555Z,2760.00
2019-03-27T08:32:43.979Z,3104.00
2019-03-27T08:33:43.482Z,3696.00
2019-03-27T08:34:43.388Z,4780.00
2019-03-27T08:35:44.738Z,4272.00
2019-03-27T08:36:43.375Z,4284.00
2019-03-27T08:37:43.382Z,3692.00
2019-03-27T08:38:43.340Z,3376.00
2019-03-27T08:39:43.334Z,3680.00
2019-03-27T08:40:43.852Z,3132.00
2019-03-27T08:41:43.342Z,2444.00
2019-03-27T08:42:43.309Z,2616.00
2019-03-27T08:43:43.403Z,3580.00
2019-03-27T08:44:43.321Z,5044.00
2019-03-27T08:45:43.246Z,4124.00
2019-03-27T08:46:43.206Z,3768.00
2019-03-27T08:47:43.245Z,3348.00
2019-03-27T08:48:43.180Z,3996.00
2019-03-27T08:49:43.165Z,4940.00
2019-03-27T08:50:43.161Z,4244.00
2019-03-27T08:51:43.171Z,4804.00
2019-03-27T08:52:43.170Z,6452.00
2019-03-27T08:53:43.126Z,4680.00
2019-03-27T08:54:43.109Z,3872.00
2019-03-27T08:55:43.122Z,4436.00
2019-03-27T08:56:43.139Z,4848.00
2019-03-27T08:57:43.104Z,5572.00
2019-03-27T08:58:43.117Z,5032.00
2019-03-27T08:59:43.049Z,4436.00
2019-03-27T09:00:43.041Z,3852.00
2019-03-27T09:01:43.034Z,3420.00
2019-03-27T09:02:43.139Z,2964.00
2019-03-27T09:03:43.020Z,3404.00
2019-03-27T09:04:43.012Z,2884.00
2019-03-27T09:05:42.979Z,3132.00
2019-03-27T09:06:42.978Z,3368.00
2019-03-27T09:07:43.039Z,4932.00
2019-03-27T09:08:42.970Z,7256.00
2019-03-27T09:09:42.977Z,6656.00
2019-03-27T09:10:43.014Z,6916.00
2019-03-27T09:11:42.923Z,7012.00
2019-03-27T09:12:42.925Z,6700.00
2019-03-27T09:13:42.957Z,7284.00
2019-03-27T09:14:42.909Z,7592.00
2019-03-27T09:15:42.880Z,7880.00
2019-03-27T09:16:42.868Z,7168.00
2019-03-27T09:17:51.935Z,7608.00
2019-03-27T09:18:42.844Z,7968.00
2019-03-27T09:19:42.819Z,8532.00
2019-03-27T09:20:42.847Z,8568.00
2019-03-27T09:21:42.803Z,8764.00
2019-03-27T09:22:42.785Z,8780.00
2019-03-27T09:23:45.539Z,7344.00
2019-03-27T09:24:43.411Z,7280.00
2019-03-27T09:25:42.754Z,7728.00
2019-03-27T09:26:42.741Z,7100.00
2019-03-27T09:27:42.757Z,6872.00
2019-03-27T09:28:42.743Z,6968.00
2019-03-27T09:29:42.754Z,6848.00
2019-03-27T09:30:42.861Z,5892.00
2019-03-27T09:31:45.136Z,6500.00
2019-03-27T09:32:42.671Z,6104.00
2019-03-27T09:33:43.054Z,5496.00
2019-03-27T09:34:42.666Z,4776.00
2019-03-27T09:35:42.661Z,5044.00
2019-03-27T09:36:42.628Z,5528.00
2019-03-27T09:37:42.756Z,6292.00
2019-03-27T09:38:42.608Z,7080.00
2019-03-27T09:39:42.595Z,7448.00
2019-03-27T09:40:42.592Z,7832.00
2019-03-27T09:41:42.604Z,7772.00
2019-03-27T09:42:42.562Z,6672.00
2019-03-27T09:43:42.568Z,5724.00
2019-03-27T09:44:42.538Z,4916.00
2019-03-27T09:45:42.532Z,5448.00
2019-03-27T09:46:42.522Z,4264.00
2019-03-27T09:47:42.504Z,4412.00
2019-03-27T09:48:42.508Z,4984.00
2019-03-27T09:49:49.411Z,4688.00
2019-03-27T09:50:43.474Z,4260.00
2019-03-27T09:51:42.455Z,3960.00
2019-03-27T09:52:42.450Z,4732.00
2019-03-27T09:53:42.476Z,5524.00
2019-03-27T09:54:42.439Z,5752.00
2019-03-27T09:55:42.412Z,4532.00
2019-03-27T09:56:42.401Z,4528.00
2019-03-27T09:57:42.393Z,5036.00
2019-03-27T09:58:42.473Z,5288.00
2019-03-27T09:59:42.373Z,3976.00
2019-03-27T10:00:42.363Z,3856.00
2019-03-27T10:01:42.418Z,3640.00
2019-03-27T10:02:42.348Z,3716.00
2019-03-27T10:03:42.344Z,4504.00
2019-03-27T10:04:42.310Z,4740.00
2019-03-27T10:05:42.311Z,5100.00
2019-03-27T10:06:42.292Z,4596.00
2019-03-27T10:07:42.285Z,4632.00
2019-03-27T10:08:42.321Z,5324.00
2019-03-27T10:09:42.308Z,5884.00
2019-03-27T10:10:42.243Z,6564.00
2019-03-27T10:11:42.240Z,7112.00
2019-03-27T10:12:42.262Z,7432.00
2019-03-27T10:13:42.232Z,6416.00
2019-03-27T10:14:42.207Z,7848.00
2019-03-27T10:15:42.213Z,7460.00
2019-03-27T10:16:42.394Z,7440.00
2019-03-27T10:17:42.163Z,6096.00
2019-03-27T10:18:42.197Z,5820.00
2019-03-27T10:19:42.142Z,6548.00
2019-03-27T10:20:42.148Z,7172.00
2019-03-27T10:21:42.121Z,7996.00
2019-03-27T10:22:42.162Z,7176.00
2019-03-27T10:23:42.104Z,5784.00
2019-03-27T10:24:42.170Z,4912.00
2019-03-27T10:25:42.084Z,4360.00
2019-03-27T10:26:42.824Z,5388.00
2019-03-27T10:27:42.053Z,5428.00
2019-03-27T10:28:42.069Z,6988.00
2019-03-27T10:29:42.020Z,7536.00
2019-03-27T10:30:42.009Z,7852.00
2019-03-27T10:31:42.018Z,5992.00
2019-03-27T10:32:41.988Z,5312.00
2019-03-27T10:33:42.030Z,5448.00
2019-03-27T10:34:41.971Z,5920.00
2019-03-27T10:35:41.971Z,6320.00
2019-03-27T10:36:41.951Z,5276.00
2019-03-27T10:37:41.959Z,4448.00
2019-03-27T10:38:42.188Z,4920.00
2019-03-27T10:39:41.927Z,5820.00
2019-03-27T10:40:41.897Z,5460.00
2019-03-27T10:41:41.898Z,5300.00
2019-03-27T10:42:41.885Z,4908.00
2019-03-27T10:43:41.895Z,4792.00
2019-03-27T10:44:41.854Z,4904.00
2019-03-27T10:45:41.863Z,6160.00
2019-03-27T10:46:41.922Z,5728.00
2019-03-27T10:47:41.843Z,6764.00
2019-03-27T10:48:51.878Z,7380.00
2019-03-27T10:49:42.899Z,5764.00
2019-03-27T10:50:41.809Z,4952.00
2019-03-27T10:51:41.865Z,5304.00
2019-03-27T10:52:41.773Z,6448.00
2019-03-27T10:53:41.861Z,7164.00
2019-03-27T10:54:41.780Z,6396.00
2019-03-27T10:55:41.740Z,6024.00
2019-03-27T10:56:41.776Z,6624.00
2019-03-27T10:57:41.795Z,7232.00
2019-03-27T10:58:41.688Z,6584.00
2019-03-27T10:59:41.693Z,5040.00
2019-03-27T11:00:41.671Z,5332.00
2019-03-27T11:01:41.670Z,5644.00
2019-03-27T11:02:41.703Z,5900.00
2019-03-27T11:03:41.723Z,4980.00
2019-03-27T11:04:41.933Z,4304.00
2019-03-27T11:05:41.644Z,3736.00
2019-03-27T11:06:41.641Z,3508.00
2019-03-27T11:07:41.709Z,3100.00
2019-03-27T11:08:41.647Z,3376.00
2019-03-27T11:09:41.728Z,4364.00
2019-03-27T11:10:41.578Z,5132.00
2019-03-27T11:11:41.538Z,4456.00
2019-03-27T11:12:41.546Z,4112.00
2019-03-27T11:13:41.620Z,3616.00
2019-03-27T11:14:41.608Z,4312.00
2019-03-27T11:15:41.504Z,5076.00
2019-03-27T11:16:41.500Z,5916.00
2019-03-27T11:17:41.508Z,6840.00
2019-03-27T11:18:41.482Z,6372.00
2019-03-27T11:19:41.491Z,4620.00
2019-03-27T11:20:41.433Z,3800.00
2019-03-27T11:21:41.454Z,3936.00
2019-03-27T11:22:41.440Z,4512.00
2019-03-27T11:23:41.455Z,5584.00
2019-03-27T11:24:41.394Z,5496.00
2019-03-27T11:25:41.390Z,6528.00
2019-03-27T11:26:41.376Z,7692.00
2019-03-27T11:27:41.408Z,8300.00
2019-03-27T11:28:41.351Z,8340.00
2019-03-27T11:29:41.360Z,8872.00
2019-03-27T11:30:41.362Z,8148.00
2019-03-27T11:31:41.309Z,6956.00
2019-03-27T11:32:41.332Z,6580.00
2019-03-27T11:33:41.281Z,6836.00
2019-03-27T11:34:41.310Z,6680.00
2019-03-27T11:35:41.272Z,5408.00
2019-03-27T11:36:41.257Z,4976.00
2019-03-27T11:37:41.457Z,4328.00
2019-03-27T11:38:41.241Z,3924.00
2019-03-27T11:39:41.222Z,3872.00
2019-03-27T11:40:41.196Z,3368.00
2019-03-27T11:41:41.222Z,3476.00
2019-03-27T11:42:41.191Z,3604.00
2019-03-27T11:43:53.921Z,3272.00
2019-03-27T11:44:42.215Z,3916.00
2019-03-27T11:45:41.189Z,5976.00
2019-03-27T11:46:41.133Z,8000.00
2019-03-27T11:47:41.140Z,8592.00
2019-03-27T11:48:41.218Z,8080.00
2019-03-27T11:49:41.116Z,8216.00
2019-03-27T11:50:45.142Z,8244.00
2019-03-27T11:51:41.096Z,8360.00
2019-03-27T11:52:41.105Z,8472.00
2019-03-27T11:53:41.068Z,8116.00
2019-03-27T11:54:41.042Z,7928.00
2019-03-27T11:55:41.023Z,8100.00
2019-03-27T11:56:41.015Z,7640.00
2019-03-27T11:57:41.070Z,6356.00
2019-03-27T11:58:40.990Z,6212.00
2019-03-27T11:59:53.241Z,5604.00
2019-03-27T12:00:53.810Z,6564.00
2019-03-27T12:01:43.738Z,7236.00
2019-03-27T12:02:40.948Z,7076.00
2019-03-27T12:03:40.941Z,7552.00
2019-03-27T12:04:41.008Z,7076.00
2019-03-27T12:05:40.930Z,6208.00
2019-03-27T12:06:41.408Z,6328.00
2019-03-27T12:07:40.903Z,8432.00
2019-03-27T12:08:40.927Z,7272.00
2019-03-27T12:09:40.866Z,5456.00
2019-03-27T12:10:41.503Z,5588.00
2019-03-27T12:11:42.568Z,5748.00
2019-03-27T12:12:41.133Z,5372.00
2019-03-27T12:13:41.133Z,4748.00
2019-03-27T12:14:40.987Z,5484.00
2019-03-27T12:15:41.478Z,4268.00
2019-03-27T12:16:40.830Z,3944.00
2019-03-27T12:17:40.812Z,4684.00
2019-03-27T12:18:40.775Z,5420.00
2019-03-27T12:19:40.932Z,6644.00
2019-03-27T12:20:40.793Z,8076.00
2019-03-27T12:21:41.405Z,9100.00
2019-03-27T12:22:41.234Z,8732.00
2019-03-27T12:23:41.119Z,7092.00
2019-03-27T12:24:40.702Z,6764.00
2019-03-27T12:25:40.769Z,7140.00
2019-03-27T12:26:40.879Z,4900.00
2019-03-27T12:27:41.031Z,4464.00
2019-03-27T12:28:40.676Z,4300.00
2019-03-27T12:29:40.651Z,4932.00
2019-03-27T12:30:40.642Z,4656.00
2019-03-27T12:31:40.649Z,4896.00
2019-03-27T12:32:40.596Z,4256.00
2019-03-27T12:33:40.601Z,5308.00
2019-03-27T12:34:40.575Z,5940.00
2019-03-27T12:35:40.587Z,5500.00